Time;durP1;ratioP1;P1;durP2;ratioP2;P2;SDS_P1;SDS_P2;PMS_P1;PMS_P2;Temp;Humidity;BMP_temperature;BMP_pressure;BME280_temperature;BME280_humidity;BME280_pressure;Samples;Min_cycle;Max_cycle;Signal;HPM_P1;HPM_P2
2023/05/29 00:00:17;;;;;;;8.87;8.17;;;18.80;15.70;;;;;;5052181;28;20426;-49
2023/05/29 00:02:44;;;;;;;8.93;8.30;;;18.80;15.70;;;;;;5052366;28;20421;-47
2023/05/29 00:05:13;;;;;;;9.00;8.20;;;18.80;15.80;;;;;;5052128;28;20414;-47
2023/05/29 00:07:40;;;;;;;8.97;8.10;;;18.80;15.70;;;;;;5052833;28;20515;-50
2023/05/29 00:10:07;;;;;;;10.10;9.13;;;18.80;15.90;;;;;;5052916;28;20442;-50
2023/05/29 00:12:33;;;;;;;9.80;8.90;;;18.70;16.00;;;;;;5052781;28;20461;-47
2023/05/29 00:14:59;;;;;;;9.37;8.57;;;18.70;16.00;;;;;;5052927;28;20497;-47
2023/05/29 00:17:24;;;;;;;9.87;8.50;;;18.70;16.00;;;;;;5053579;28;20440;-49
2023/05/29 00:19:50;;;;;;;9.63;8.93;;;18.70;16.00;;;;;;5053482;28;20179;-48
2023/05/29 00:22:16;;;;;;;8.33;7.83;;;18.70;16.20;;;;;;5050038;28;20218;-48
2023/05/29 00:24:42;;;;;;;9.07;8.27;;;18.70;16.30;;;;;;5052660;28;20422;-49
2023/05/29 00:27:08;;;;;;;9.20;8.60;;;18.70;16.20;;;;;;5050931;28;20467;-46
2023/05/29 00:29:35;;;;;;;7.97;7.50;;;18.60;16.20;;;;;;5050736;28;20248;-49
2023/05/29 00:32:01;;;;;;;9.37;8.67;;;18.70;16.10;;;;;;5050615;28;20421;-49
2023/05/29 00:34:27;;;;;;;9.87;9.17;;;18.60;16.00;;;;;;5051677;28;20485;-49
2023/05/29 00:36:54;;;;;;;9.40;8.60;;;18.50;16.00;;;;;;5051761;28;20498;-46
2023/05/29 00:39:20;;;;;;;10.00;9.27;;;18.50;16.20;;;;;;5052503;28;20179;-50
2023/05/29 00:41:45;;;;;;;8.50;7.90;;;18.50;16.40;;;;;;5051284;28;20829;-48
2023/05/29 00:44:11;;;;;;;9.93;8.93;;;18.50;16.40;;;;;;5051584;28;20211;-49
2023/05/29 00:46:37;;;;;;;8.60;8.10;;;18.50;16.60;;;;;;5050672;28;20192;-49
2023/05/29 00:49:05;;;;;;;10.00;9.00;;;18.40;16.90;;;;;;5049903;28;20183;-51
2023/05/29 00:51:32;;;;;;;9.23;8.43;;;18.50;16.40;;;;;;5051835;28;20198;-50
2023/05/29 00:53:58;;;;;;;9.87;9.00;;;18.40;16.60;;;;;;5052172;28;20564;-49
2023/05/29 00:56:24;;;;;;;9.07;8.47;;;18.40;16.90;;;;;;5049142;28;20824;-46
2023/05/29 00:58:52;;;;;;;9.70;8.90;;;18.30;16.50;;;;;;5049845;28;20772;-48
2023/05/29 01:01:18;;;;;;;9.20;8.60;;;18.30;16.50;;;;;;5058107;28;20822;-46
2023/05/29 01:03:45;;;;;;;9.33;8.73;;;18.20;16.70;;;;;;5071985;28;20420;-50
2023/05/29 01:06:11;;;;;;;10.13;9.47;;;18.10;16.90;;;;;;5072772;28;20779;-52
2023/05/29 01:08:36;;;;;;;10.13;9.43;;;18.10;16.90;;;;;;5072141;28;20431;-51
2023/05/29 01:11:21;;;;;;;9.60;8.70;;;18.00;17.10;;;;;;5071349;28;20194;-44
2023/05/29 01:13:49;;;;;;;8.60;8.00;;;18.00;17.10;;;;;;5072045;28;20463;-48
2023/05/29 01:16:36;;;;;;;9.67;8.73;;;18.00;17.10;;;;;;5071345;28;20412;-45
2023/05/29 01:19:17;;;;;;;8.83;7.93;;;18.00;17.10;;;;;;5071471;28;20416;-49
2023/05/29 01:21:59;;;;;;;9.60;8.90;;;18.00;16.90;;;;;;5069971;28;20780;-45
2023/05/29 01:24:58;;;;;;;9.67;8.93;;;18.00;17.10;;;;;;5070288;28;20439;-47
2023/05/29 01:27:25;;;;;;;10.17;9.47;;;18.00;17.10;;;;;;5069242;28;20421;-46
2023/05/29 01:29:53;;;;;;;10.47;9.70;;;17.80;17.20;;;;;;5071968;28;20508;-48
2023/05/29 01:32:20;;;;;;;9.90;9.10;;;17.90;17.40;;;;;;5070284;28;20420;-48
2023/05/29 01:34:45;;;;;;;9.53;8.90;;;17.80;17.30;;;;;;5072948;28;20550;-47
2023/05/29 01:37:11;;;;;;;9.00;8.40;;;17.80;17.40;;;;;;5074953;28;20495;-50
2023/05/29 01:39:37;;;;;;;10.40;9.03;;;17.70;17.50;;;;;;5075015;28;20182;-49
2023/05/29 01:42:04;;;;;;;9.40;8.33;;;17.80;17.60;;;;;;5074382;28;20174;-48
2023/05/29 01:44:31;;;;;;;9.83;9.13;;;17.80;17.50;;;;;;5074999;28;20186;-53
2023/05/29 01:46:57;;;;;;;9.43;8.80;;;17.70;17.70;;;;;;5075478;28;20416;-53
2023/05/29 01:49:24;;;;;;;10.20;9.50;;;17.70;17.60;;;;;;5075749;28;20448;-51
2023/05/29 01:51:50;;;;;;;9.47;8.80;;;17.80;17.80;;;;;;5075099;28;20499;-49
2023/05/29 01:54:16;;;;;;;10.00;9.20;;;17.80;17.80;;;;;;5073999;28;20504;-49
2023/05/29 01:56:42;;;;;;;9.67;8.90;;;17.80;17.80;;;;;;5074788;28;20266;-49
2023/05/29 01:59:08;;;;;;;9.67;9.07;;;17.80;17.80;;;;;;5074591;28;20283;-50
2023/05/29 02:01:34;;;;;;;10.10;9.30;;;17.80;17.70;;;;;;5072351;28;20958;-49
2023/05/29 02:04:00;;;;;;;9.60;9.00;;;17.80;17.70;;;;;;5074587;28;20420;-48
2023/05/29 02:06:25;;;;;;;9.47;8.87;;;17.80;17.70;;;;;;5075353;28;20217;-45
2023/05/29 02:08:51;;;;;;;9.63;8.77;;;17.80;18.00;;;;;;5074415;28;20768;-48
2023/05/29 02:11:16;;;;;;;9.07;8.47;;;17.80;18.10;;;;;;5073951;28;20554;-50
2023/05/29 02:13:42;;;;;;;10.33;9.43;;;17.80;18.10;;;;;;5072773;28;20259;-47
2023/05/29 02:16:08;;;;;;;9.87;9.17;;;17.70;18.10;;;;;;5074294;28;20711;-48
2023/05/29 02:18:37;;;;;;;10.47;9.67;;;17.70;18.40;;;;;;5072510;28;20186;-52
2023/05/29 02:21:02;;;;;;;9.37;8.77;;;17.70;18.30;;;;;;5071915;28;20186;-50
2023/05/29 02:23:28;;;;;;;9.57;9.03;;;17.70;18.30;;;;;;5075378;28;20783;-48
2023/05/29 02:25:53;;;;;;;10.40;9.50;;;17.70;18.40;;;;;;5074206;28;20218;-50
2023/05/29 02:28:19;;;;;;;9.43;8.83;;;17.60;18.30;;;;;;5073622;28;20210;-47
2023/05/29 02:30:45;;;;;;;8.57;8.07;;;17.60;18.30;;;;;;5074421;28;20224;-46
2023/05/29 02:33:10;;;;;;;9.73;9.03;;;17.60;18.30;;;;;;5055206;28;20202;-46
2023/05/29 02:35:36;;;;;;;10.20;9.50;;;17.50;18.20;;;;;;5073682;28;20517;-47
2023/05/29 02:38:02;;;;;;;9.43;8.53;;;17.60;18.40;;;;;;5074953;28;20182;-50
2023/05/29 02:40:27;;;;;;;9.93;9.33;;;17.60;18.40;;;;;;5074576;28;20179;-50
2023/05/29 02:42:53;;;;;;;9.47;8.97;;;17.60;18.50;;;;;;5074192;28;20175;-48
2023/05/29 02:45:19;;;;;;;9.97;9.23;;;17.60;18.60;;;;;;5073870;28;20265;-50
2023/05/29 02:47:44;;;;;;;9.87;9.17;;;17.60;18.70;;;;;;5072448;28;20170;-50
2023/05/29 02:50:10;;;;;;;9.57;8.97;;;17.50;19.00;;;;;;5073715;28;20214;-46
2023/05/29 02:52:39;;;;;;;9.30;8.60;;;17.30;19.40;;;;;;5072903;28;20186;-50
2023/05/29 02:55:05;;;;;;;9.73;9.13;;;17.00;19.70;;;;;;5074371;28;20463;-51
2023/05/29 02:57:32;;;;;;;10.10;9.20;;;16.60;20.60;;;;;;5071957;28;20507;-48
2023/05/29 02:59:57;;;;;;;10.70;9.90;;;16.40;21.00;;;;;;5073623;28;20416;-49
2023/05/29 03:02:23;;;;;;;9.80;9.20;;;16.30;21.60;;;;;;5069604;28;20421;-48
2023/05/29 03:04:50;;;;;;;10.00;9.30;;;16.10;21.80;;;;;;5074063;28;20218;-48
2023/05/29 03:07:16;;;;;;;10.13;9.40;;;16.00;22.20;;;;;;5074111;28;20189;-48
2023/05/29 03:09:42;;;;;;;9.63;9.03;;;16.00;22.20;;;;;;5073922;28;20421;-51
2023/05/29 03:12:08;;;;;;;10.73;9.90;;;16.20;22.30;;;;;;5072579;28;20206;-50
2023/05/29 03:14:35;;;;;;;9.77;9.13;;;16.30;21.80;;;;;;5073155;28;20276;-48
2023/05/29 03:17:05;;;;;;;9.40;8.70;;;16.40;21.60;;;;;;5072812;28;20555;-50
2023/05/29 03:19:31;;;;;;;8.70;8.10;;;16.50;21.20;;;;;;5071748;28;20421;-47
2023/05/29 03:21:57;;;;;;;9.47;8.83;;;16.60;20.90;;;;;;5072429;28;20413;-50
2023/05/29 03:24:23;;;;;;;9.53;8.73;;;16.70;20.70;;;;;;5073023;28;20221;-43
2023/05/29 03:26:49;;;;;;;9.60;9.00;;;16.80;20.60;;;;;;5072846;28;20175;-44
2023/05/29 03:29:16;;;;;;;9.63;8.93;;;16.90;20.40;;;;;;5072847;28;20857;-43
2023/05/29 03:31:42;;;;;;;10.17;9.47;;;16.90;20.20;;;;;;5071344;28;20924;-45
2023/05/29 03:34:07;;;;;;;10.20;9.33;;;16.90;20.00;;;;;;5072615;28;20524;-45
2023/05/29 03:36:36;;;;;;;8.80;8.10;;;16.90;19.90;;;;;;5070892;28;20189;-45
2023/05/29 03:39:02;;;;;;;9.67;8.90;;;16.90;20.00;;;;;;5073459;28;20266;-43
2023/05/29 03:41:28;;;;;;;9.10;8.40;;;16.80;20.70;;;;;;5071544;28;20523;-44
2023/05/29 03:43:53;;;;;;;9.13;8.53;;;16.50;21.30;;;;;;5072090;28;20507;-43
2023/05/29 03:46:19;;;;;;;9.57;8.77;;;16.20;22.00;;;;;;5071908;28;20583;-44
2023/05/29 03:48:45;;;;;;;9.93;9.00;;;16.00;22.60;;;;;;5071541;28;20179;-45
2023/05/29 03:51:10;;;;;;;9.30;8.70;;;15.80;22.90;;;;;;5071125;28;20186;-47
2023/05/29 03:53:36;;;;;;;9.70;9.10;;;15.80;23.20;;;;;;5069861;28;20460;-46
2023/05/29 03:56:02;;;;;;;9.30;8.60;;;15.70;23.30;;;;;;5072509;28;20174;-46
2023/05/29 03:58:27;;;;;;;10.13;9.27;;;15.70;23.50;;;;;;5070172;28;20601;-46
2023/05/29 04:00:53;;;;;;;9.67;8.97;;;15.70;24.10;;;;;;5070619;28;20281;-52
2023/05/29 04:03:19;;;;;;;9.90;9.20;;;15.80;23.20;;;;;;5071069;28;20174;-45
2023/05/29 04:05:45;;;;;;;9.27;8.57;;;15.80;23.30;;;;;;5070018;28;20659;-46
2023/05/29 04:08:13;;;;;;;9.10;8.47;;;16.00;22.90;;;;;;5070014;28;20481;-47
2023/05/29 04:10:39;;;;;;;9.53;8.83;;;16.10;22.50;;;;;;5071003;28;20335;-46
2023/05/29 04:13:06;;;;;;;9.83;9.13;;;16.30;22.40;;;;;;5063945;28;20892;-46
2023/05/29 04:15:33;;;;;;;8.73;8.23;;;16.40;22.30;;;;;;5050743;28;20471;-43
2023/05/29 04:17:59;;;;;;;9.33;8.70;;;16.50;21.90;;;;;;5052422;28;20455;-52
2023/05/29 04:20:25;;;;;;;9.73;9.13;;;16.60;21.70;;;;;;5050168;28;20421;-45
2023/05/29 04:22:51;;;;;;;9.87;9.20;;;16.70;21.70;;;;;;5051092;28;20420;-52
2023/05/29 04:25:17;;;;;;;9.30;8.60;;;16.70;21.50;;;;;;5051226;28;20426;-52
2023/05/29 04:27:48;;;;;;;9.37;8.63;;;16.80;21.40;;;;;;5049545;28;20511;-48
2023/05/29 04:30:14;;;;;;;9.93;9.23;;;16.80;21.40;;;;;;5052269;28;20413;-49
2023/05/29 04:32:40;;;;;;;10.80;9.77;;;16.90;21.40;;;;;;5049053;28;20512;-48
2023/05/29 04:35:06;;;;;;;10.10;9.50;;;16.90;21.30;;;;;;5068947;28;20548;-47
2023/05/29 04:37:37;;;;;;;9.90;9.20;;;16.90;21.30;;;;;;5048689;28;20910;-49
2023/05/29 04:40:10;;;;;;;10.27;9.57;;;16.90;21.20;;;;;;5052132;28;20433;-51
2023/05/29 04:42:37;;;;;;;10.90;10.10;;;17.00;21.30;;;;;;5048966;28;20791;-47
2023/05/29 04:45:05;;;;;;;9.70;9.10;;;16.70;21.50;;;;;;5049102;28;20475;-46
2023/05/29 04:47:32;;;;;;;9.70;9.10;;;16.60;22.00;;;;;;5049158;28;20544;-49
2023/05/29 04:50:00;;;;;;;10.47;9.83;;;16.50;22.40;;;;;;5049538;28;20439;-49
2023/05/29 04:52:27;;;;;;;9.77;9.17;;;16.40;22.60;;;;;;5051342;28;20417;-49
2023/05/29 04:54:53;;;;;;;10.60;9.90;;;16.40;22.90;;;;;;5051520;28;20864;-50
2023/05/29 04:57:19;;;;;;;11.00;10.20;;;16.50;22.80;;;;;;5053043;28;20471;-46
2023/05/29 04:59:45;;;;;;;10.30;9.50;;;16.60;22.40;;;;;;5052258;28;20410;-44
2023/05/29 05:02:10;;;;;;;10.40;9.43;;;16.60;22.40;;;;;;5049930;28;20640;-50
2023/05/29 05:04:36;;;;;;;10.27;9.57;;;16.70;22.50;;;;;;5050652;28;20229;-50
2023/05/29 05:07:04;;;;;;;11.33;10.30;;;16.70;22.50;;;;;;5049998;28;20404;-48
2023/05/29 05:09:29;;;;;;;9.73;8.93;;;16.80;22.20;;;;;;5050941;28;20647;-49
2023/05/29 05:11:55;;;;;;;10.67;9.80;;;16.90;22.10;;;;;;5054950;28;20451;-50
2023/05/29 05:14:21;;;;;;;10.80;10.07;;;17.00;22.00;;;;;;5054000;28;20215;-46
2023/05/29 05:16:47;;;;;;;11.40;10.40;;;17.00;21.60;;;;;;5052945;28;20443;-49
2023/05/29 05:19:13;;;;;;;10.13;9.43;;;16.90;21.90;;;;;;5055220;28;21109;-47
2023/05/29 05:21:38;;;;;;;10.20;9.50;;;16.90;21.80;;;;;;5054846;28;20225;-53
2023/05/29 05:24:04;;;;;;;10.00;9.20;;;16.90;21.60;;;;;;5056072;28;20579;-53
2023/05/29 05:26:30;;;;;;;10.20;9.40;;;17.00;21.10;;;;;;5056042;28;20241;-51
2023/05/29 05:28:55;;;;;;;10.97;9.83;;;16.90;21.20;;;;;;5054592;28;20902;-65
2023/05/29 05:31:22;;;;;;;9.00;8.40;;;17.00;21.80;;;;;;5055460;28;20183;-51
2023/05/29 05:33:47;;;;;;;9.73;9.20;;;17.00;21.10;;;;;;5055390;28;20207;-52
2023/05/29 05:36:14;;;;;;;9.93;9.00;;;17.10;20.90;;;;;;5053703;28;20432;-53
2023/05/29 05:38:40;;;;;;;10.30;9.70;;;17.20;21.10;;;;;;5052559;28;20179;-48
2023/05/29 05:41:05;;;;;;;10.37;9.67;;;17.20;20.70;;;;;;5053587;28;20413;-52
2023/05/29 05:43:31;;;;;;;10.37;9.67;;;17.20;21.00;;;;;;5054730;28;20176;-54
2023/05/29 05:45:56;;;;;;;10.67;9.87;;;17.20;20.50;;;;;;5053604;28;20190;-49
2023/05/29 05:48:22;;;;;;;10.03;9.33;;;17.00;20.80;;;;;;5052522;28;20589;-52
2023/05/29 05:50:48;;;;;;;13.60;9.47;;;17.10;21.60;;;;;;5054467;28;20187;-52
2023/05/29 05:53:13;;;;;;;10.83;10.03;;;17.00;21.10;;;;;;5054196;28;20198;-49
2023/05/29 05:55:39;;;;;;;9.97;9.13;;;17.10;21.20;;;;;;5054774;28;20895;-53
2023/05/29 05:58:04;;;;;;;11.03;9.83;;;17.20;21.80;;;;;;5053605;28;20186;-51
2023/05/29 06:00:30;;;;;;;10.10;9.30;;;17.30;21.60;;;;;;5053789;28;20186;-52
2023/05/29 06:02:55;;;;;;;9.20;8.60;;;17.40;21.50;;;;;;5053379;28;20194;-51
2023/05/29 06:05:21;;;;;;;8.60;8.10;;;17.40;20.90;;;;;;5087233;28;20268;-49
2023/05/29 06:07:47;;;;;;;9.60;8.90;;;17.40;21.10;;;;;;5053319;28;20228;-52
2023/05/29 06:10:13;;;;;;;9.00;8.40;;;17.50;20.60;;;;;;5052813;28;20198;-49
2023/05/29 06:12:38;;;;;;;9.77;8.97;;;17.50;21.60;;;;;;5052904;28;20276;-50
2023/05/29 06:15:04;;;;;;;8.53;7.93;;;17.50;21.30;;;;;;5055107;28;21012;-48
2023/05/29 06:17:30;;;;;;;9.77;9.00;;;17.60;20.90;;;;;;5052732;28;20175;-48
2023/05/29 06:19:56;;;;;;;8.80;8.10;;;17.60;20.20;;;;;;5088527;28;20452;-48
2023/05/29 06:22:21;;;;;;;9.70;8.80;;;17.60;20.30;;;;;;5054187;28;20184;-47
2023/05/29 06:24:47;;;;;;;9.63;8.87;;;17.70;20.40;;;;;;5053033;28;20190;-45
2023/05/29 06:27:12;;;;;;;9.10;8.40;;;17.70;20.30;;;;;;5054285;28;20705;-46
2023/05/29 06:29:38;;;;;;;9.00;8.37;;;17.70;20.80;;;;;;5054151;28;20179;-47
2023/05/29 06:32:04;;;;;;;9.43;8.73;;;17.70;20.20;;;;;;5055030;28;20183;-48
2023/05/29 06:34:30;;;;;;;9.20;8.50;;;17.80;20.20;;;;;;5053738;28;20225;-46
2023/05/29 06:36:56;;;;;;;8.93;8.23;;;17.80;20.20;;;;;;5055067;28;20508;-50
2023/05/29 06:39:21;;;;;;;9.70;8.93;;;17.80;20.20;;;;;;5054387;28;20546;-48
2023/05/29 06:41:47;;;;;;;8.93;8.33;;;17.80;20.20;;;;;;5054765;28;20175;-51
2023/05/29 06:44:13;;;;;;;9.87;9.27;;;17.90;20.30;;;;;;5054520;28;20550;-48
2023/05/29 06:46:38;;;;;;;9.40;8.60;;;18.00;19.90;;;;;;5038675;28;20180;-50
2023/05/29 06:49:04;;;;;;;9.50;8.57;;;18.00;20.10;;;;;;5088724;28;20207;-49
2023/05/29 06:51:30;;;;;;;9.20;8.43;;;18.00;20.30;;;;;;5053649;28;20183;-47
2023/05/29 06:53:56;;;;;;;9.53;8.83;;;18.00;20.30;;;;;;5055261;28;20570;-46
2023/05/29 06:56:22;;;;;;;9.40;8.70;;;18.00;20.30;;;;;;5050974;28;20418;-48
2023/05/29 06:58:47;;;;;;;9.87;8.90;;;18.00;20.30;;;;;;5087756;28;20615;-48
2023/05/29 07:01:13;;;;;;;8.93;8.30;;;18.10;20.40;;;;;;5072197;28;20903;-49
2023/05/29 07:03:38;;;;;;;10.20;9.30;;;18.10;20.40;;;;;;5052832;28;20179;-51
2023/05/29 07:06:05;;;;;;;9.03;8.20;;;18.20;20.90;;;;;;5054563;28;20191;-51
2023/05/29 07:08:30;;;;;;;9.43;8.83;;;18.20;21.20;;;;;;5053193;28;20196;-54
2023/05/29 07:10:56;;;;;;;10.20;9.40;;;18.20;21.30;;;;;;5053969;28;20441;-50
2023/05/29 07:13:21;;;;;;;9.50;8.90;;;18.10;21.70;;;;;;5072117;28;20195;-52
2023/05/29 07:15:51;;;;;;;8.83;8.23;;;18.10;22.00;;;;;;5054787;28;20650;-51
2023/05/29 07:18:16;;;;;;;9.73;8.80;;;18.10;22.20;;;;;;5053177;28;20646;-50
2023/05/29 07:20:42;;;;;;;8.77;8.17;;;18.10;22.60;;;;;;5053707;28;20430;-49
2023/05/29 07:23:08;;;;;;;9.90;9.10;;;18.20;22.50;;;;;;5053888;28;20262;-50
2023/05/29 07:25:33;;;;;;;9.47;8.67;;;18.20;22.40;;;;;;5052985;28;20681;-52
2023/05/29 07:27:59;;;;;;;9.67;8.00;;;18.30;22.20;;;;;;5052960;28;20186;-49
2023/05/29 07:30:25;;;;;;;8.67;8.00;;;18.30;21.70;;;;;;5050471;28;20184;-48
2023/05/29 07:32:50;;;;;;;9.40;8.53;;;18.40;20.80;;;;;;5051960;28;20183;-51
2023/05/29 07:35:16;;;;;;;8.30;7.70;;;18.40;20.60;;;;;;5059726;28;20236;-50
2023/05/29 07:37:41;;;;;;;10.00;9.20;;;18.40;20.60;;;;;;5071870;28;20214;-46
2023/05/29 07:40:07;;;;;;;9.33;8.63;;;18.40;20.00;;;;;;5090342;28;20270;-54
2023/05/29 07:42:33;;;;;;;8.60;7.90;;;18.50;19.40;;;;;;5068306;28;20549;-51
2023/05/29 07:44:59;;;;;;;8.70;8.10;;;18.50;19.50;;;;;;5073500;28;20978;-48
2023/05/29 07:47:25;;;;;;;9.00;8.20;;;18.50;19.20;;;;;;5071418;28;20428;-53
2023/05/29 07:49:51;;;;;;;7.70;7.10;;;18.60;19.00;;;;;;5073555;28;20535;-51
2023/05/29 07:52:17;;;;;;;9.30;8.70;;;18.50;19.10;;;;;;5072466;28;20553;-49
2023/05/29 07:54:43;;;;;;;8.50;7.70;;;18.60;18.70;;;;;;5071965;28;20460;-47
2023/05/29 07:57:09;;;;;;;8.20;7.47;;;18.60;18.90;;;;;;5073161;28;20179;-46
2023/05/29 07:59:41;;;;;;;8.27;7.67;;;18.80;18.90;;;;;;5073539;28;20542;-50
2023/05/29 08:02:07;;;;;;;9.67;8.97;;;18.90;18.70;;;;;;5072612;28;20428;-48
2023/05/29 08:04:33;;;;;;;8.77;7.87;;;19.00;18.70;;;;;;5072677;28;20429;-46
2023/05/29 08:07:05;;;;;;;8.90;8.30;;;19.10;18.40;;;;;;5072612;28;20415;-49
2023/05/29 08:09:31;;;;;;;9.10;8.40;;;19.10;18.10;;;;;;5073622;28;20392;-47
2023/05/29 08:11:56;;;;;;;9.33;8.77;;;19.20;18.00;;;;;;5070446;28;20508;-51
2023/05/29 08:14:22;;;;;;;10.53;9.73;;;19.20;17.70;;;;;;5053286;28;20209;-50
2023/05/29 08:16:48;;;;;;;8.83;8.30;;;19.20;17.70;;;;;;5052106;28;20266;-48
2023/05/29 08:19:13;;;;;;;9.60;9.00;;;19.30;17.20;;;;;;5052527;28;20171;-51
2023/05/29 08:21:40;;;;;;;9.40;8.70;;;19.50;16.50;;;;;;5050852;28;20179;-52
2023/05/29 08:24:05;;;;;;;10.50;9.60;;;19.60;15.80;;;;;;5048406;28;20179;-54
2023/05/29 08:26:31;;;;;;;9.47;8.77;;;19.80;16.40;;;;;;5064026;28;20432;-52
2023/05/29 08:28:57;;;;;;;8.37;7.80;;;19.90;16.60;;;;;;5069096;28;20183;-52
2023/05/29 08:31:25;;;;;;;8.10;7.50;;;20.00;16.60;;;;;;5069042;28;20191;-52
2023/05/29 08:33:51;;;;;;;8.93;8.33;;;20.10;16.30;;;;;;5069722;28;20207;-52
2023/05/29 08:36:17;;;;;;;8.23;7.73;;;20.10;15.90;;;;;;5070084;28;20406;-47
2023/05/29 08:38:43;;;;;;;9.50;8.60;;;20.30;16.00;;;;;;5066211;28;20429;-52
2023/05/29 08:41:13;;;;;;;9.37;8.40;;;20.30;15.50;;;;;;5052792;28;20410;-53
2023/05/29 08:43:42;;;;;;;9.00;8.40;;;20.40;15.70;;;;;;5051911;28;20856;-53
2023/05/29 08:46:08;;;;;;;8.20;7.33;;;20.50;15.80;;;;;;5053300;28;20435;-51
2023/05/29 08:48:38;;;;;;;8.27;7.77;;;20.50;16.00;;;;;;5052906;28;20423;-50
2023/05/29 08:51:05;;;;;;;10.67;9.87;;;20.60;15.80;;;;;;5053029;28;20460;-51
2023/05/29 08:53:32;;;;;;;10.10;9.40;;;20.70;15.50;;;;;;5052646;28;21187;-50
2023/05/29 08:55:58;;;;;;;8.80;8.00;;;20.70;15.50;;;;;;5052245;28;20425;-45
2023/05/29 08:58:25;;;;;;;9.87;8.97;;;20.70;15.60;;;;;;5052790;28;20421;-52
2023/05/29 09:00:51;;;;;;;10.30;9.60;;;20.70;15.70;;;;;;5052844;28;20500;-53
2023/05/29 09:03:17;;;;;;;9.00;8.27;;;20.80;15.80;;;;;;5051881;28;20892;-48
2023/05/29 09:05:44;;;;;;;9.77;8.93;;;20.90;15.70;;;;;;5053025;28;20655;-47
2023/05/29 09:08:11;;;;;;;9.07;8.23;;;20.90;16.20;;;;;;5053485;28;20453;-48
2023/05/29 09:10:43;;;;;;;7.93;7.43;;;20.90;15.90;;;;;;5052970;28;20921;-49
2023/05/29 09:13:09;;;;;;;9.93;9.03;;;20.90;16.20;;;;;;5052050;28;20409;-50
2023/05/29 09:15:36;;;;;;;11.87;9.10;;;20.90;16.50;;;;;;5052047;28;20405;-50
2023/05/29 09:18:04;;;;;;;8.37;7.87;;;20.90;16.50;;;;;;5048362;28;20517;-51
2023/05/29 09:20:30;;;;;;;8.80;8.20;;;20.90;16.60;;;;;;5043173;28;20414;-47
2023/05/29 09:23:00;;;;;;;8.20;7.60;;;20.90;16.70;;;;;;5060610;28;20409;-52
2023/05/29 09:25:31;;;;;;;9.70;9.00;;;20.90;17.00;;;;;;5069147;28;20431;-52
2023/05/29 09:28:00;;;;;;;8.93;8.13;;;21.00;16.70;;;;;;5069627;28;20409;-53
2023/05/29 09:30:46;;;;;;;8.77;8.10;;;21.00;16.70;;;;;;5069195;28;20452;-54
2023/05/29 09:33:14;;;;;;;9.10;8.40;;;21.10;16.60;;;;;;5066869;28;20473;-48
2023/05/29 09:35:45;;;;;;;8.80;8.10;;;21.40;15.50;;;;;;5061969;28;20760;-44
2023/05/29 09:38:16;;;;;;;9.50;8.07;;;21.50;15.40;;;;;;5050721;28;20474;-46
2023/05/29 09:40:41;;;;;;;8.90;8.07;;;21.50;15.20;;;;;;5047969;28;20417;-48
2023/05/29 09:43:19;;;;;;;9.57;8.97;;;21.60;14.90;;;;;;5050670;28;20413;-44
2023/05/29 09:45:47;;;;;;;9.23;8.37;;;21.80;15.10;;;;;;5049291;28;20175;-45
2023/05/29 09:48:17;;;;;;;10.80;9.80;;;22.00;14.50;;;;;;5069806;28;20812;-50
2023/05/29 09:50:44;;;;;;;8.23;7.43;;;22.10;14.50;;;;;;5049552;28;20414;-45
2023/05/29 09:53:19;;;;;;;11.10;8.67;;;22.30;13.70;;;;;;5051673;28;20413;-47
2023/05/29 09:55:50;;;;;;;8.97;8.20;;;22.60;13.60;;;;;;5087706;28;20420;-45
2023/05/29 09:58:17;;;;;;;7.90;7.30;;;22.80;13.40;;;;;;5056057;28;20410;-48
2023/05/29 10:00:44;;;;;;;8.40;7.63;;;23.00;13.00;;;;;;5056178;28;20454;-47
2023/05/29 10:03:13;;;;;;;8.83;8.03;;;23.10;13.10;;;;;;5072752;28;20428;-49
2023/05/29 10:05:43;;;;;;;8.80;8.30;;;23.30;12.30;;;;;;5055998;28;20417;-50
2023/05/29 10:08:13;;;;;;;8.40;7.60;;;23.40;12.40;;;;;;5056072;28;20417;-48
2023/05/29 10:10:42;;;;;;;7.80;7.30;;;23.50;12.10;;;;;;5055714;28;20422;-49
2023/05/29 10:13:11;;;;;;;7.93;7.43;;;23.60;12.00;;;;;;5056032;28;20409;-44
2023/05/29 10:15:39;;;;;;;7.80;7.20;;;23.70;10.00;;;;;;5056142;28;20422;-47
2023/05/29 10:18:15;;;;;;;7.60;7.20;;;23.90;10.60;;;;;;5056700;28;20405;-45
2023/05/29 10:20:43;;;;;;;7.57;6.97;;;24.00;9.90;;;;;;5056316;28;20405;-47
2023/05/29 10:23:10;;;;;;;8.43;7.60;;;24.10;9.50;;;;;;5056160;28;20402;-48
2023/05/29 10:25:36;;;;;;;8.67;8.07;;;24.30;9.30;;;;;;5056268;28;20459;-46
2023/05/29 10:28:02;;;;;;;7.53;7.13;;;24.40;8.50;;;;;;5056492;28;20819;-45
2023/05/29 10:30:37;;;;;;;8.20;7.53;;;24.60;8.40;;;;;;5056144;28;20440;-48
2023/05/29 10:33:45;;;;;;;8.80;8.20;;;24.70;7.40;;;;;;5055514;28;20451;-49
2023/05/29 10:36:15;;;;;;;8.10;7.60;;;24.70;7.20;;;;;;4953587;29;20441;-43
2023/05/29 10:38:45;;;;;;;7.00;6.60;;;24.60;7.30;;;;;;5022594;28;20417;-48
2023/05/29 10:41:26;;;;;;;8.10;7.50;;;24.60;6.90;;;;;;5035246;28;20464;-50
2023/05/29 10:43:56;;;;;;;8.30;7.70;;;24.60;7.30;;;;;;5069399;28;20418;-60
2023/05/29 10:46:42;;;;;;;8.37;7.77;;;24.60;7.00;;;;;;5035702;28;20414;-47
2023/05/29 10:49:19;;;;;;;7.70;7.20;;;24.70;6.80;;;;;;5035483;28;20468;-51
2023/05/29 10:51:45;;;;;;;7.73;7.03;;;24.90;6.30;;;;;;5035675;28;20772;-52
2023/05/29 10:54:13;;;;;;;7.60;7.00;;;24.90;6.40;;;;;;5053581;28;20461;-46
2023/05/29 10:56:40;;;;;;;7.87;7.23;;;24.90;6.40;;;;;;5054404;28;20405;-47
2023/05/29 10:59:07;;;;;;;7.23;6.83;;;25.00;7.50;;;;;;5053723;28;20405;-47
2023/05/29 11:01:33;;;;;;;7.90;7.20;;;25.00;6.10;;;;;;5053341;28;20413;-45
2023/05/29 11:04:17;;;;;;;7.70;7.30;;;25.00;6.00;;;;;;5055193;28;20436;-49
2023/05/29 11:06:43;;;;;;;7.73;7.23;;;25.00;6.00;;;;;;5054260;28;20823;-47
2023/05/29 11:09:29;;;;;;;7.70;7.20;;;24.90;6.10;;;;;;5055657;28;20506;-44
2023/05/29 11:12:13;;;;;;;7.80;7.20;;;24.80;5.90;;;;;;5054949;28;20540;-44
2023/05/29 11:14:53;;;;;;;8.97;8.27;;;24.90;5.60;;;;;;5055419;28;20989;-46
2023/05/29 11:17:37;;;;;;;8.07;7.43;;;24.90;5.60;;;;;;5055546;28;20413;-50
2023/05/29 11:20:08;;;;;;;8.27;7.53;;;24.80;5.50;;;;;;5073372;28;20408;-46
2023/05/29 11:22:49;;;;;;;8.00;7.40;;;25.00;6.10;;;;;;5054676;28;20412;-49
2023/05/29 11:25:15;;;;;;;7.50;6.80;;;25.00;5.50;;;;;;5055455;28;20409;-48
2023/05/29 11:27:44;;;;;;;8.77;7.93;;;25.00;6.00;;;;;;5055285;28;20744;-48
2023/05/29 11:30:10;;;;;;;8.03;7.50;;;24.90;6.50;;;;;;5055304;28;20937;-46
2023/05/29 11:32:38;;;;;;;8.50;7.90;;;24.80;6.10;;;;;;5054384;28;20452;-46
2023/05/29 11:35:12;;;;;;;8.43;7.93;;;24.60;5.90;;;;;;5055196;28;20488;-46
2023/05/29 11:37:39;;;;;;;7.60;7.00;;;24.40;5.90;;;;;;5054998;28;20409;-47
2023/05/29 11:40:08;;;;;;;7.10;6.70;;;24.30;5.90;;;;;;5055330;28;20756;-49
2023/05/29 11:42:34;;;;;;;8.77;7.63;;;24.30;6.00;;;;;;5054410;28;20497;-48
2023/05/29 11:45:16;;;;;;;7.47;6.87;;;24.30;6.50;;;;;;5073022;28;20512;-46
2023/05/29 11:47:56;;;;;;;7.63;6.77;;;24.50;5.00;;;;;;5054760;28;20636;-53
2023/05/29 11:50:30;;;;;;;7.87;7.37;;;24.60;5.20;;;;;;5054927;28;20925;-50
2023/05/29 11:52:57;;;;;;;7.53;6.93;;;24.60;5.60;;;;;;5054358;28;20436;-51
2023/05/29 11:55:24;;;;;;;7.13;6.73;;;24.50;5.10;;;;;;5054863;28;20572;-49
2023/05/29 11:57:55;;;;;;;7.37;6.97;;;24.70;4.20;;;;;;5054675;28;20462;-48
2023/05/29 12:00:21;;;;;;;7.13;6.70;;;24.80;3.20;;;;;;5054913;28;20779;-48
2023/05/29 12:02:49;;;;;;;7.87;7.27;;;24.90;3.20;;;;;;5053925;28;20483;-49
2023/05/29 12:05:18;;;;;;;7.10;6.70;;;24.90;2.90;;;;;;5054906;28;20413;-47
2023/05/29 12:07:52;;;;;;;6.70;6.30;;;24.80;2.80;;;;;;5054423;28;20417;-50
2023/05/29 12:10:19;;;;;;;7.30;6.80;;;24.60;3.10;;;;;;5054609;28;20448;-52
2023/05/29 12:12:53;;;;;;;7.43;6.93;;;24.60;2.70;;;;;;5053907;28;20471;-52
2023/05/29 12:15:19;;;;;;;7.27;6.67;;;24.50;3.30;;;;;;5054555;28;20460;-52
2023/05/29 12:17:45;;;;;;;7.07;6.33;;;24.50;3.70;;;;;;5054450;28;20410;-52
2023/05/29 12:20:13;;;;;;;7.57;6.97;;;24.50;3.40;;;;;;5054617;28;20463;-49
2023/05/29 12:22:40;;;;;;;7.30;6.70;;;24.50;3.20;;;;;;5054160;28;20409;-45
2023/05/29 12:25:14;;;;;;;6.30;5.90;;;24.70;3.20;;;;;;5054416;28;20410;-49
2023/05/29 12:27:46;;;;;;;6.87;6.37;;;24.60;3.20;;;;;;5054341;28;20424;-50
2023/05/29 12:30:16;;;;;;;6.93;6.43;;;24.50;2.80;;;;;;5054320;28;20437;-50
2023/05/29 12:32:43;;;;;;;7.47;6.87;;;24.50;3.40;;;;;;5053702;28;20491;-50
2023/05/29 12:35:19;;;;;;;6.60;6.13;;;24.50;1.80;;;;;;5054145;28;20464;-51
2023/05/29 12:37:53;;;;;;;11.10;6.60;;;24.60;1.10;;;;;;5054174;28;20747;-46
2023/05/29 12:40:23;;;;;;;7.07;6.60;;;24.80;1.00;;;;;;5054269;28;20414;-46
2023/05/29 12:42:53;;;;;;;6.80;6.40;;;24.90;1.10;;;;;;5053484;28;20413;-49
2023/05/29 12:45:19;;;;;;;7.50;7.00;;;24.90;1.20;;;;;;5054081;28;20929;-48
2023/05/29 12:47:46;;;;;;;7.03;6.53;;;24.80;2.00;;;;;;5054097;28;20457;-49